Aviation Digital Data Service (ADDS)

Output produced by METARs form (0146 UTC 19 September 2014)
found at http://www.aviationweather.gov/adds/metars/
 
KATL 182341Z 1900/2006 VRB03KT P6SM SCT060 
     FM190500 03003KT P6SM SCT025 SCT200 
     FM191100 07005KT P6SM BKN008 
     FM191400 09007KT P6SM SCT025 
     FM191600 10009KT P6SM SCT040